Terminal Aerodrome Forecast
Issued by NWS Newport/Morehead City, NC

Home | Current Version | Previous Version | Text Only | Print | Product List | Glossary Off
Versions: 1 2 3 4 5 6 7 8 9 10 11 12 13 14

000
FTUS42 KMHX 301700
TAFEWN
TAF
KEWN 301732Z 3018/3118 07006KT P6SM SCT040
     FM310200 10002KT P6SM FEW040
     FM310900 00000KT P6SM SKC
      TEMPO 3109/3112 5SM BR=

USA.gov is the U.S. government's official web portal to all federal, state and local government web resources and services.